createdAt,value
2023-02-11T00:01:34.169Z,57.33
2023-02-11T00:04:00.438Z,57.39
2023-02-11T00:06:26.702Z,58.00
2023-02-11T00:08:52.945Z,58.35
2023-02-11T00:11:19.207Z,58.18
2023-02-11T00:13:45.473Z,58.05
2023-02-11T00:16:11.739Z,58.61
2023-02-11T00:18:38.024Z,58.34
2023-02-11T00:21:04.287Z,58.74
2023-02-11T00:23:30.540Z,58.86
2023-02-11T00:25:56.803Z,58.71
2023-02-11T00:28:23.168Z,58.94
2023-02-11T00:30:49.568Z,58.17
2023-02-11T00:33:15.871Z,58.59
2023-02-11T00:35:42.152Z,58.99
2023-02-11T00:38:08.402Z,58.18
2023-02-11T00:40:34.660Z,59.09
2023-02-11T00:43:00.901Z,59.41
2023-02-11T00:45:27.161Z,59.41
2023-02-11T00:47:53.421Z,59.94
2023-02-11T00:50:19.695Z,59.66
2023-02-11T00:52:45.938Z,60.09
2023-02-11T00:55:12.193Z,59.78
2023-02-11T00:57:38.438Z,59.61
2023-02-11T01:00:04.720Z,60.00
2023-02-11T01:02:30.995Z,60.57
2023-02-11T01:04:57.323Z,61.18
2023-02-11T01:07:23.623Z,60.44
2023-02-11T01:09:49.879Z,61.06
2023-02-11T01:12:16.148Z,60.98
2023-02-11T01:14:42.418Z,61.46
2023-02-11T01:17:08.685Z,61.46
2023-02-11T01:19:34.949Z,61.41
2023-02-11T01:22:01.199Z,62.10
2023-02-11T01:24:27.457Z,62.21
2023-02-11T01:26:53.707Z,62.61
2023-02-11T01:29:19.963Z,62.11
2023-02-11T01:31:46.246Z,62.59
2023-02-11T01:34:12.508Z,62.12
2023-02-11T01:36:38.754Z,61.52
2023-02-11T01:39:05.004Z,61.05
2023-02-11T01:41:31.263Z,61.35
2023-02-11T01:43:57.525Z,60.51
2023-02-11T01:46:23.926Z,60.86
2023-02-11T01:48:50.227Z,60.19
2023-02-11T01:51:16.519Z,60.18
2023-02-11T01:53:42.788Z,60.21
2023-02-11T01:56:09.041Z,60.23
2023-02-11T01:58:35.290Z,61.48
2023-02-11T02:01:01.551Z,61.93
2023-02-11T02:03:27.856Z,61.27
2023-02-11T02:05:54.149Z,61.88
2023-02-11T02:08:20.425Z,61.68
2023-02-11T02:10:46.685Z,61.52
2023-02-11T02:13:12.951Z,61.16
2023-02-11T02:15:39.277Z,60.98
2023-02-11T02:18:05.564Z,60.67
2023-02-11T02:20:31.839Z,59.80
2023-02-11T02:22:58.095Z,59.96
2023-02-11T02:25:24.360Z,60.25
2023-02-11T02:27:50.621Z,60.85
2023-02-11T02:30:16.882Z,59.91
2023-02-11T02:32:43.122Z,60.02
2023-02-11T02:35:09.391Z,60.77
2023-02-11T02:37:35.654Z,60.57
2023-02-11T02:40:01.934Z,59.79
2023-02-11T02:42:28.208Z,60.18
2023-02-11T02:44:54.454Z,59.87
2023-02-11T02:47:20.719Z,59.47
2023-02-11T02:49:46.973Z,59.58
2023-02-11T02:52:13.244Z,59.14
2023-02-11T02:54:39.598Z,58.82
2023-02-11T02:57:05.846Z,58.87
2023-02-11T02:59:32.089Z,58.83
2023-02-11T03:01:58.367Z,58.90
2023-02-11T03:04:24.638Z,59.02
2023-02-11T03:06:50.882Z,58.42
2023-02-11T03:09:17.142Z,59.10
2023-02-11T03:11:43.389Z,58.87
2023-02-11T03:14:09.634Z,59.35
2023-02-11T03:16:35.953Z,59.38
2023-02-11T03:19:02.306Z,59.59
2023-02-11T03:21:28.578Z,59.31
2023-02-11T03:23:54.840Z,58.27
2023-02-11T03:26:21.089Z,58.18
2023-02-11T03:28:47.373Z,59.67
2023-02-11T03:31:13.710Z,60.39
2023-02-11T03:33:40.044Z,60.16
2023-02-11T03:36:06.307Z,59.22
2023-02-11T03:38:32.571Z,58.88
2023-02-11T03:40:58.856Z,58.71
2023-02-11T03:43:25.110Z,58.09
2023-02-11T03:45:51.703Z,58.49
2023-02-11T03:48:18.164Z,58.61
2023-02-11T03:50:44.441Z,57.75
2023-02-11T03:53:10.701Z,57.76
2023-02-11T03:55:36.962Z,58.17
2023-02-11T03:58:03.311Z,57.65
2023-02-11T04:00:29.568Z,57.89
2023-02-11T04:02:55.854Z,58.15
2023-02-11T04:05:22.182Z,57.86
2023-02-11T04:07:48.457Z,57.64
2023-02-11T04:10:14.714Z,57.93
2023-02-11T04:12:41.006Z,58.00
2023-02-11T04:15:07.280Z,58.05
2023-02-11T04:17:33.552Z,58.27
2023-02-11T04:19:59.810Z,58.68
2023-02-11T04:22:26.091Z,58.92
2023-02-11T04:24:52.359Z,59.18
2023-02-11T04:27:18.609Z,58.82
2023-02-11T04:29:44.874Z,58.75
2023-02-11T04:32:11.232Z,58.41
2023-02-11T04:34:37.646Z,59.53
2023-02-11T04:37:03.910Z,60.88
2023-02-11T04:39:30.170Z,60.55
2023-02-11T04:41:56.428Z,60.52
2023-02-11T04:44:22.675Z,59.32
2023-02-11T04:46:48.929Z,59.43
2023-02-11T04:49:15.201Z,59.67
2023-02-11T04:51:41.465Z,60.48
2023-02-11T04:54:07.727Z,60.47
2023-02-11T04:56:33.978Z,61.30
2023-02-11T04:59:00.256Z,59.16
2023-02-11T05:01:26.603Z,59.36
2023-02-11T05:03:52.884Z,59.49
2023-02-11T05:06:19.143Z,59.12
2023-02-11T05:08:45.427Z,58.76
2023-02-11T05:11:11.698Z,58.68
2023-02-11T05:13:37.946Z,58.96
2023-02-11T05:16:04.213Z,58.62
2023-02-11T05:18:30.487Z,58.33
2023-02-11T05:20:56.745Z,59.33
2023-02-11T05:23:22.998Z,59.12
2023-02-11T05:25:49.568Z,58.37
2023-02-11T05:28:16.013Z,58.35
2023-02-11T05:30:42.362Z,58.11
2023-02-11T05:33:08.654Z,58.11
2023-02-11T05:35:34.902Z,58.46
2023-02-11T05:38:01.166Z,58.36
2023-02-11T05:40:27.430Z,57.42
2023-02-11T05:42:53.701Z,57.79
2023-02-11T05:45:19.954Z,60.03
2023-02-11T05:47:46.224Z,59.78
2023-02-11T05:50:12.488Z,58.82
2023-02-11T05:52:38.757Z,59.35
2023-02-11T05:55:05.277Z,59.89
2023-02-11T05:57:31.524Z,60.82
2023-02-11T05:59:57.805Z,61.15
2023-02-11T06:02:24.070Z,60.08
2023-02-11T06:04:50.343Z,61.99
2023-02-11T06:07:16.602Z,60.97
2023-02-11T06:09:42.860Z,61.26
2023-02-11T06:12:09.121Z,61.66
2023-02-11T06:14:35.384Z,61.58
2023-02-11T06:17:01.670Z,61.17
2023-02-11T06:19:27.945Z,62.11
2023-02-11T06:21:54.207Z,61.67
2023-02-11T06:24:36.440Z,62.14
2023-02-11T06:27:06.721Z,60.75
2023-02-11T06:29:32.969Z,61.39
2023-02-11T06:31:59.315Z,61.02
2023-02-11T06:34:25.666Z,60.11
2023-02-11T06:36:52.978Z,59.60
2023-02-11T06:39:19.241Z,61.00
2023-02-11T06:41:45.492Z,60.94
2023-02-11T06:44:11.855Z,61.77
2023-02-11T06:46:38.193Z,61.36
2023-02-11T06:49:04.505Z,66.43
2023-02-11T06:51:30.757Z,66.15
2023-02-11T06:53:57.006Z,67.21
2023-02-11T06:56:23.280Z,63.34
2023-02-11T06:58:49.553Z,64.44
2023-02-11T07:01:15.806Z,63.06
2023-02-11T07:03:42.066Z,63.19
2023-02-11T07:06:08.336Z,61.93
2023-02-11T07:08:34.614Z,60.28
2023-02-11T07:11:00.969Z,60.51
2023-02-11T07:13:27.233Z,58.86
2023-02-11T07:15:53.758Z,59.88
2023-02-11T07:18:20.093Z,61.67
2023-02-11T07:20:46.344Z,61.68
2023-02-11T07:23:12.588Z,59.61
2023-02-11T07:25:38.833Z,59.88
2023-02-11T07:28:05.137Z,60.72
2023-02-11T07:30:31.410Z,61.28
2023-02-11T07:32:57.678Z,62.25
2023-02-11T07:35:23.965Z,60.83
2023-02-11T07:37:50.218Z,60.42
2023-02-11T07:40:16.467Z,61.60
2023-02-11T07:42:42.716Z,62.07
2023-02-11T07:45:08.962Z,61.51
2023-02-11T07:47:35.234Z,62.50
2023-02-11T07:50:01.532Z,62.11
2023-02-11T07:52:27.795Z,61.94
2023-02-11T07:54:54.052Z,62.23
2023-02-11T07:57:20.418Z,62.45
2023-02-11T07:59:46.785Z,62.87
2023-02-11T08:02:13.166Z,64.19
2023-02-11T08:04:39.441Z,63.78
2023-02-11T08:07:05.713Z,63.91
2023-02-11T08:09:34.428Z,63.99
2023-02-11T08:12:00.948Z,64.33
2023-02-11T08:14:27.237Z,64.49
2023-02-11T08:16:53.605Z,64.39
2023-02-11T08:19:19.918Z,64.80
2023-02-11T08:21:46.168Z,64.48
2023-02-11T08:24:12.441Z,64.12
2023-02-11T08:26:38.733Z,65.08
2023-02-11T08:29:05.008Z,64.06
2023-02-11T08:31:31.420Z,64.16
2023-02-11T08:33:57.811Z,63.74
2023-02-11T08:36:24.092Z,64.55
2023-02-11T08:38:50.347Z,64.15
2023-02-11T08:41:16.591Z,64.41
2023-02-11T08:43:42.864Z,64.09
2023-02-11T08:46:09.159Z,64.54
2023-02-11T08:48:35.503Z,64.62
2023-02-11T08:51:01.777Z,64.29
2023-02-11T08:53:28.055Z,64.57
2023-02-11T08:55:54.335Z,65.47
2023-02-11T08:58:20.598Z,64.49
2023-02-11T09:00:46.881Z,63.57
2023-02-11T09:03:13.161Z,63.44
2023-02-11T09:05:39.431Z,63.16
2023-02-11T09:08:05.686Z,63.92
2023-02-11T09:10:31.935Z,63.30
2023-02-11T09:12:58.190Z,64.16
2023-02-11T09:15:24.437Z,64.53
2023-02-11T09:17:50.805Z,63.37
2023-02-11T09:20:17.076Z,62.82
2023-02-11T09:22:43.354Z,62.24
2023-02-11T09:25:09.624Z,63.02
2023-02-11T09:27:35.880Z,63.31
2023-02-11T09:30:02.131Z,62.96
2023-02-11T09:32:28.374Z,62.31
2023-02-11T09:34:54.624Z,61.22
2023-02-11T09:37:20.891Z,60.66
2023-02-11T09:39:47.164Z,60.25
2023-02-11T09:42:13.428Z,60.12
2023-02-11T09:44:39.689Z,60.35
2023-02-11T09:47:05.943Z,60.94
2023-02-11T09:49:32.217Z,61.53
2023-02-11T09:51:58.509Z,62.76
2023-02-11T09:54:24.787Z,62.67
2023-02-11T09:56:51.061Z,63.13
2023-02-11T09:59:17.329Z,61.74
2023-02-11T10:01:43.630Z,61.73
2023-02-11T10:04:09.974Z,61.45
2023-02-11T10:06:36.273Z,61.03
2023-02-11T10:09:02.534Z,60.79
2023-02-11T10:11:31.970Z,60.44
2023-02-11T10:13:58.641Z,60.88
2023-02-11T10:16:24.895Z,61.25
2023-02-11T10:18:51.160Z,61.11
2023-02-11T10:21:17.402Z,60.82
2023-02-11T10:23:43.661Z,60.66
2023-02-11T10:26:09.914Z,60.38
2023-02-11T10:28:36.228Z,59.93
2023-02-11T10:31:02.705Z,60.40
2023-02-11T10:33:29.060Z,60.30
2023-02-11T10:35:55.345Z,58.96
2023-02-11T10:38:21.616Z,59.69
2023-02-11T10:40:47.954Z,59.74
2023-02-11T10:43:14.294Z,59.23
2023-02-11T10:45:40.562Z,59.16
2023-02-11T10:48:06.813Z,58.63
2023-02-11T10:50:33.076Z,59.39
2023-02-11T10:52:59.345Z,59.12
2023-02-11T10:55:25.617Z,58.59
2023-02-11T10:57:51.870Z,58.21
2023-02-11T11:00:18.201Z,58.99
2023-02-11T11:02:44.523Z,59.29
2023-02-11T11:05:10.801Z,58.35
2023-02-11T11:07:37.056Z,56.26
2023-02-11T11:10:03.410Z,56.42
2023-02-11T11:12:29.660Z,57.78
2023-02-11T11:14:55.929Z,56.42
2023-02-11T11:17:22.213Z,55.85
2023-02-11T11:19:48.477Z,57.15
2023-02-11T11:22:14.726Z,56.25
2023-02-11T11:24:40.990Z,56.85
2023-02-11T11:27:07.242Z,55.95
2023-02-11T11:29:33.525Z,55.16
2023-02-11T11:31:59.868Z,56.13
2023-02-11T11:34:26.158Z,55.78
2023-02-11T11:36:52.425Z,54.76
2023-02-11T11:39:18.705Z,55.52
2023-02-11T11:41:44.970Z,55.13
2023-02-11T11:44:11.218Z,55.33
2023-02-11T11:46:37.496Z,55.02
2023-02-11T11:49:03.766Z,54.50
2023-02-11T11:51:30.013Z,54.94
2023-02-11T11:53:56.337Z,54.77
2023-02-11T11:56:22.579Z,54.91
2023-02-11T11:58:48.845Z,54.80
2023-02-11T12:01:15.265Z,54.61
2023-02-11T12:03:41.523Z,54.22
2023-02-11T12:06:07.779Z,52.46
2023-02-11T12:08:34.017Z,52.44
2023-02-11T12:11:00.287Z,51.98
2023-02-11T12:13:26.563Z,51.49
2023-02-11T12:15:52.824Z,51.12
2023-02-11T12:18:19.083Z,49.18
2023-02-11T12:20:45.338Z,48.26
2023-02-11T12:23:11.595Z,46.92
2023-02-11T12:25:37.865Z,47.79
2023-02-11T12:28:04.164Z,48.05
2023-02-11T12:30:30.484Z,48.11
2023-02-11T12:32:56.755Z,48.95
2023-02-11T12:35:23.021Z,48.18
2023-02-11T12:37:49.292Z,47.97
2023-02-11T12:40:15.556Z,46.21
2023-02-11T12:42:41.805Z,45.84
2023-02-11T12:45:08.069Z,43.86
2023-02-11T12:47:34.326Z,45.31
2023-02-11T12:50:00.594Z,45.81
2023-02-11T12:52:26.856Z,46.50
2023-02-11T12:54:53.139Z,47.10
2023-02-11T12:57:19.416Z,47.83
2023-02-11T12:59:45.723Z,48.74
2023-02-11T13:02:12.077Z,48.58
2023-02-11T13:04:38.383Z,48.12
2023-02-11T13:07:04.630Z,48.63
2023-02-11T13:09:30.895Z,49.14
2023-02-11T13:11:57.167Z,47.60
2023-02-11T13:14:23.433Z,47.47
2023-02-11T13:16:49.763Z,47.77
2023-02-11T13:19:16.097Z,48.05
2023-02-11T13:21:42.422Z,48.70
2023-02-11T13:24:08.695Z,49.29
2023-02-11T13:26:34.986Z,48.67
2023-02-11T13:29:01.238Z,47.30
2023-02-11T13:31:27.650Z,48.27
2023-02-11T13:33:54.090Z,47.34
2023-02-11T13:36:20.342Z,46.29
2023-02-11T13:38:46.595Z,46.82
2023-02-11T13:41:12.879Z,46.20
2023-02-11T13:43:39.137Z,46.35
2023-02-11T13:46:05.458Z,45.56
2023-02-11T13:48:31.735Z,44.02
2023-02-11T13:50:57.984Z,44.83
2023-02-11T13:53:24.343Z,44.40
2023-02-11T13:55:50.616Z,44.45
2023-02-11T13:58:16.881Z,44.70
2023-02-11T14:00:43.146Z,45.53
2023-02-11T14:03:09.422Z,44.96
2023-02-11T14:05:35.681Z,45.55
2023-02-11T14:08:01.953Z,45.13
2023-02-11T14:10:28.203Z,45.62
2023-02-11T14:12:54.649Z,45.37
2023-02-11T14:15:20.962Z,46.39
2023-02-11T14:17:47.241Z,46.10
2023-02-11T14:20:13.491Z,44.05
2023-02-11T14:22:39.765Z,44.67
2023-02-11T14:25:06.024Z,44.72
2023-02-11T14:27:32.276Z,44.88
2023-02-11T14:29:58.627Z,45.36
2023-02-11T14:32:24.891Z,44.81
2023-02-11T14:34:51.160Z,43.82
2023-02-11T14:37:17.432Z,42.73
2023-02-11T14:39:43.694Z,43.25
2023-02-11T14:42:09.957Z,42.88
2023-02-11T14:44:36.202Z,43.03
2023-02-11T14:47:02.442Z,44.77
2023-02-11T14:49:28.718Z,42.50
2023-02-11T14:51:54.982Z,42.06
2023-02-11T14:54:21.230Z,42.81
2023-02-11T14:56:47.489Z,41.65
2023-02-11T14:59:13.761Z,41.64
2023-02-11T15:01:40.169Z,42.16
2023-02-11T15:04:06.466Z,42.33
2023-02-11T15:06:32.754Z,42.28
2023-02-11T15:08:59.041Z,42.06
2023-02-11T15:11:25.288Z,42.10
2023-02-11T15:13:54.297Z,41.63
2023-02-11T15:16:21.625Z,41.88
2023-02-11T15:18:47.955Z,40.83
2023-02-11T15:21:14.276Z,41.54
2023-02-11T15:23:40.547Z,41.54
2023-02-11T15:26:06.816Z,41.45
2023-02-11T15:28:33.165Z,41.69
2023-02-11T15:30:59.650Z,41.52
2023-02-11T15:33:26.040Z,41.34
2023-02-11T15:35:52.309Z,41.37
2023-02-11T15:38:18.560Z,41.87
2023-02-11T15:40:44.823Z,41.28
2023-02-11T15:43:11.079Z,41.47
2023-02-11T15:45:37.434Z,41.78
2023-02-11T15:48:03.684Z,41.09
2023-02-11T15:50:29.940Z,42.21
2023-02-11T15:52:56.215Z,41.77
2023-02-11T15:55:22.501Z,42.55
2023-02-11T15:57:48.754Z,43.08
2023-02-11T16:00:15.005Z,42.97
2023-02-11T16:02:41.274Z,43.50
2023-02-11T16:05:07.530Z,43.13
2023-02-11T16:07:33.889Z,43.17
2023-02-11T16:10:00.165Z,42.52
2023-02-11T16:12:26.582Z,42.43
2023-02-11T16:14:52.851Z,43.21
2023-02-11T16:17:19.296Z,43.22
2023-02-11T16:19:45.567Z,42.79
2023-02-11T16:22:11.892Z,43.17
2023-02-11T16:24:38.170Z,42.38
2023-02-11T16:27:04.450Z,42.66
2023-02-11T16:29:30.722Z,43.39
2023-02-11T16:31:57.012Z,43.62
2023-02-11T16:34:23.267Z,44.11
2023-02-11T16:36:49.562Z,44.20
2023-02-11T16:39:15.824Z,44.30
2023-02-11T16:41:42.080Z,44.42
2023-02-11T16:44:08.352Z,45.66
2023-02-11T16:46:34.648Z,45.90
2023-02-11T16:49:00.944Z,45.48
2023-02-11T16:51:27.337Z,45.86
2023-02-11T16:53:53.590Z,46.33
2023-02-11T16:56:19.845Z,46.77
2023-02-11T16:58:46.129Z,47.37
2023-02-11T17:01:14.058Z,47.88
2023-02-11T17:03:40.571Z,48.37
2023-02-11T17:06:06.851Z,48.79
2023-02-11T17:08:33.111Z,48.94
2023-02-11T17:10:59.389Z,48.93
2023-02-11T17:13:25.727Z,48.86
2023-02-11T17:15:52.365Z,48.96
2023-02-11T17:18:18.759Z,48.43
2023-02-11T17:20:45.002Z,49.03
2023-02-11T17:23:11.265Z,48.69
2023-02-11T17:25:37.519Z,49.21
2023-02-11T17:28:03.826Z,49.23
2023-02-11T17:30:30.107Z,49.49
2023-02-11T17:32:56.374Z,49.46
2023-02-11T17:35:22.650Z,49.75
2023-02-11T17:37:48.939Z,49.57
2023-02-11T17:40:15.202Z,51.51
2023-02-11T17:42:41.483Z,51.74
2023-02-11T17:45:07.732Z,49.76
2023-02-11T17:47:34.009Z,49.96
2023-02-11T17:50:00.257Z,49.81
2023-02-11T17:52:26.517Z,49.33
2023-02-11T17:54:52.773Z,50.16
2023-02-11T17:57:19.127Z,49.69
2023-02-11T17:59:45.390Z,49.74
2023-02-11T18:02:11.668Z,49.81
2023-02-11T18:04:37.943Z,49.32
2023-02-11T18:07:04.205Z,48.98
2023-02-11T18:09:30.481Z,48.74
2023-02-11T18:11:56.730Z,49.53
2023-02-11T18:14:23.050Z,49.09
2023-02-11T18:16:49.369Z,49.90
2023-02-11T18:19:15.644Z,49.63
2023-02-11T18:21:41.901Z,50.54
2023-02-11T18:24:08.195Z,49.79
2023-02-11T18:26:34.471Z,50.23
2023-02-11T18:29:00.752Z,50.33
2023-02-11T18:31:27.100Z,50.91
2023-02-11T18:33:53.418Z,51.76
2023-02-11T18:36:19.700Z,51.32
2023-02-11T18:38:45.959Z,51.10
2023-02-11T18:41:12.249Z,50.45
2023-02-11T18:43:38.533Z,50.90
2023-02-11T18:46:04.820Z,51.01
2023-02-11T18:48:31.108Z,51.75
2023-02-11T18:50:57.377Z,51.92
2023-02-11T18:53:23.644Z,52.05
2023-02-11T18:55:50.201Z,51.22
2023-02-11T18:58:16.738Z,51.87
2023-02-11T19:00:42.990Z,51.13
2023-02-11T19:03:09.370Z,51.86
2023-02-11T19:05:35.631Z,49.66
2023-02-11T19:08:01.894Z,50.43
2023-02-11T19:10:28.154Z,50.94
2023-02-11T19:12:54.413Z,51.08
2023-02-11T19:15:20.701Z,51.43
2023-02-11T19:17:46.957Z,51.84
2023-02-11T19:20:13.210Z,52.54
2023-02-11T19:22:39.454Z,52.74
2023-02-11T19:25:05.728Z,53.54
2023-02-11T19:27:31.990Z,52.90
2023-02-11T19:29:58.234Z,53.50
2023-02-11T19:32:24.480Z,53.61
2023-02-11T19:34:50.730Z,53.58
2023-02-11T19:37:16.989Z,52.77
2023-02-11T19:39:43.261Z,53.12
2023-02-11T19:42:09.528Z,52.41
2023-02-11T19:44:35.795Z,52.01
2023-02-11T19:47:02.046Z,52.46
2023-02-11T19:49:28.297Z,52.11
2023-02-11T19:51:54.568Z,52.18
2023-02-11T19:54:20.824Z,51.90
2023-02-11T19:56:47.098Z,51.46
2023-02-11T19:59:13.361Z,51.21
2023-02-11T20:01:39.653Z,51.25
2023-02-11T20:04:05.962Z,51.94
2023-02-11T20:06:32.250Z,52.00
2023-02-11T20:08:59.024Z,52.94
2023-02-11T20:11:25.357Z,52.86
2023-02-11T20:13:51.623Z,52.49
2023-02-11T20:16:17.958Z,53.30
2023-02-11T20:18:44.261Z,53.44
2023-02-11T20:21:10.517Z,53.34
2023-02-11T20:23:36.773Z,53.89
2023-02-11T20:26:03.019Z,53.73
2023-02-11T20:28:29.348Z,53.31
2023-02-11T20:30:55.787Z,53.83
2023-02-11T20:33:22.106Z,53.56
2023-02-11T20:35:48.381Z,54.10
2023-02-11T20:38:14.638Z,53.75
2023-02-11T20:40:40.903Z,54.01
2023-02-11T20:43:07.157Z,54.04
2023-02-11T20:45:33.411Z,54.55
2023-02-11T20:47:59.688Z,54.75
2023-02-11T20:50:25.937Z,54.06
2023-02-11T20:52:52.205Z,54.25
2023-02-11T20:55:18.463Z,54.67
2023-02-11T20:57:44.722Z,53.87
2023-02-11T21:00:10.996Z,54.26
2023-02-11T21:02:37.270Z,54.34
2023-02-11T21:05:03.534Z,54.30
2023-02-11T21:07:29.793Z,54.30
2023-02-11T21:09:56.052Z,54.46
2023-02-11T21:12:22.306Z,53.48
2023-02-11T21:14:48.557Z,53.06
2023-02-11T21:17:14.824Z,52.45
2023-02-11T21:19:41.084Z,52.33
2023-02-11T21:22:07.335Z,52.29
2023-02-11T21:24:33.639Z,50.72
2023-02-11T21:26:59.913Z,50.15
2023-02-11T21:29:26.179Z,50.72
2023-02-11T21:31:52.568Z,50.97
2023-02-11T21:34:18.850Z,50.43
2023-02-11T21:36:45.126Z,50.64
2023-02-11T21:39:11.401Z,51.22
2023-02-11T21:41:37.670Z,50.91
2023-02-11T21:44:03.933Z,50.63
2023-02-11T21:46:30.218Z,50.46
2023-02-11T21:48:56.498Z,50.44
2023-02-11T21:51:22.736Z,50.49
2023-02-11T21:53:48.985Z,49.79
2023-02-11T21:56:15.239Z,49.98
2023-02-11T21:58:41.518Z,50.29
2023-02-11T22:01:07.865Z,49.72
2023-02-11T22:03:34.142Z,50.33
2023-02-11T22:06:00.418Z,49.63
2023-02-11T22:08:26.690Z,50.51
2023-02-11T22:10:52.950Z,50.03
2023-02-11T22:13:19.201Z,49.82
2023-02-11T22:15:45.464Z,49.32
2023-02-11T22:18:11.727Z,49.06
2023-02-11T22:20:37.974Z,50.03
2023-02-11T22:23:04.233Z,49.77
2023-02-11T22:25:30.508Z,49.37
2023-02-11T22:27:56.871Z,49.75
2023-02-11T22:30:23.167Z,50.23
2023-02-11T22:32:49.418Z,49.83
2023-02-11T22:35:15.679Z,49.55
2023-02-11T22:37:41.927Z,50.60
2023-02-11T22:40:08.170Z,49.49
2023-02-11T22:42:34.425Z,50.52
2023-02-11T22:45:00.691Z,50.20
2023-02-11T22:47:26.950Z,50.71
2023-02-11T22:49:53.229Z,50.89
2023-02-11T22:52:19.482Z,50.75
2023-02-11T22:54:45.745Z,50.84
2023-02-11T22:57:12.014Z,50.73
2023-02-11T22:59:38.285Z,50.74
2023-02-11T23:02:04.642Z,50.84
2023-02-11T23:04:30.987Z,51.49
2023-02-11T23:06:57.257Z,52.00
2023-02-11T23:09:23.520Z,51.91
2023-02-11T23:11:49.804Z,52.96
2023-02-11T23:14:16.069Z,52.86
2023-02-11T23:16:42.401Z,52.57
2023-02-11T23:19:08.717Z,53.16
2023-02-11T23:21:35.013Z,53.36
2023-02-11T23:24:01.267Z,52.95
2023-02-11T23:26:27.567Z,52.98
2023-02-11T23:28:53.938Z,52.98
2023-02-11T23:31:20.449Z,52.48
2023-02-11T23:33:46.777Z,52.57
2023-02-11T23:36:13.049Z,52.49
2023-02-11T23:38:39.302Z,52.64
2023-02-11T23:41:05.587Z,53.64
2023-02-11T23:43:31.842Z,53.65
2023-02-11T23:45:58.351Z,54.40
2023-02-11T23:48:24.658Z,53.90
2023-02-11T23:50:50.931Z,54.02
2023-02-11T23:53:17.178Z,54.07
2023-02-11T23:55:43.425Z,54.44
2023-02-11T23:58:09.709Z,54.44
